Time;durP1;ratioP1;P1;durP2;ratioP2;P2;SDS_P1;SDS_P2;PMS_P1;PMS_P2;Temp;Humidity;BMP_temperature;BMP_pressure;BME280_temperature;BME280_humidity;BME280_pressure;Samples;Min_cycle;Max_cycle;Signal;HPM_P1;HPM_P2
2021/10/11 00:01:37;;;;;;;6.53;3.43;;;7.60;94.00;;;;;;4173178;28;20098;-65
2021/10/11 00:03:38;;;;;;;10.63;3.97;;;7.50;94.00;;;;;;4174923;28;20087;-64
2021/10/11 00:05:39;;;;;;;10.23;3.97;;;7.60;94.00;;;;;;4173691;28;20029;-63
2021/10/11 00:07:41;;;;;;;9.03;4.23;;;7.60;93.90;;;;;;4174058;28;20876;-65
2021/10/11 00:09:43;;;;;;;6.30;4.00;;;7.60;94.10;;;;;;4185496;28;20410;-63
2021/10/11 00:11:44;;;;;;;10.33;4.00;;;7.60;94.00;;;;;;4189798;28;20036;-64
2021/10/11 00:13:45;;;;;;;10.27;4.77;;;7.60;94.10;;;;;;4190749;28;20078;-62
2021/10/11 00:15:46;;;;;;;11.60;3.80;;;7.60;94.10;;;;;;4188837;28;20082;-63
2021/10/11 00:17:47;;;;;;;10.17;4.50;;;7.60;94.30;;;;;;4190499;28;20447;-62
2021/10/11 00:19:51;;;;;;;10.37;3.90;;;7.50;94.60;;;;;;4189142;28;20109;-63
2021/10/11 00:21:53;;;;;;;7.23;3.50;;;7.50;94.90;;;;;;4188359;28;20044;-63
2021/10/11 00:23:54;;;;;;;13.80;4.50;;;7.40;95.30;;;;;;4189173;28;20299;-64
2021/10/11 00:25:55;;;;;;;10.30;4.20;;;7.30;95.20;;;;;;4190352;28;20146;-65
2021/10/11 00:27:56;;;;;;;7.67;4.33;;;7.30;95.30;;;;;;4189161;28;20047;-64
2021/10/11 00:29:58;;;;;;;7.33;3.70;;;7.30;95.40;;;;;;4189755;28;20062;-66
2021/10/11 00:32:03;;;;;;;9.53;4.27;;;7.20;95.40;;;;;;4187486;28;20036;-62
2021/10/11 00:34:04;;;;;;;7.60;4.20;;;7.20;95.50;;;;;;4190054;28;20429;-64
2021/10/11 00:36:05;;;;;;;11.23;3.87;;;7.20;95.60;;;;;;4189433;28;20029;-64
2021/10/11 00:38:06;;;;;;;8.80;3.70;;;7.20;95.50;;;;;;4190277;28;20066;-62
2021/10/11 00:40:08;;;;;;;7.57;3.47;;;7.20;95.50;;;;;;4188559;28;20508;-65
2021/10/11 00:42:09;;;;;;;10.27;3.83;;;7.10;95.40;;;;;;4190049;28;20082;-64
2021/10/11 00:44:11;;;;;;;7.80;3.83;;;7.10;95.40;;;;;;4184649;28;20040;-63
2021/10/11 00:46:13;;;;;;;9.40;3.67;;;7.10;95.30;;;;;;4156509;28;20083;-63
2021/10/11 00:48:14;;;;;;;12.33;3.30;;;7.10;95.30;;;;;;4156988;28;20025;-63
2021/10/11 00:50:16;;;;;;;7.83;2.97;;;7.10;95.20;;;;;;4156542;28;20440;-62
2021/10/11 00:52:17;;;;;;;5.27;3.20;;;7.10;94.80;;;;;;4157477;28;20497;-64
2021/10/11 00:54:18;;;;;;;5.23;3.37;;;7.20;94.60;;;;;;4171848;28;20044;-64
2021/10/11 00:56:20;;;;;;;9.50;4.37;;;7.20;94.50;;;;;;4190338;28;20041;-63
2021/10/11 00:58:21;;;;;;;7.60;3.70;;;7.20;94.50;;;;;;4189182;28;20044;-66
2021/10/11 01:00:22;;;;;;;10.03;3.10;;;7.20;94.40;;;;;;4190229;28;20044;-66
2021/10/11 01:02:24;;;;;;;5.03;2.87;;;7.20;94.40;;;;;;4188932;28;20044;-65
2021/10/11 01:04:25;;;;;;;7.53;3.20;;;7.20;94.50;;;;;;4189185;28;20040;-65
2021/10/11 01:06:26;;;;;;;7.13;3.33;;;7.20;94.40;;;;;;4186880;28;20078;-65
2021/10/11 01:08:28;;;;;;;6.73;2.83;;;7.20;94.50;;;;;;4190259;28;20074;-65
2021/10/11 01:10:30;;;;;;;6.00;2.90;;;7.20;94.50;;;;;;4189062;28;20094;-65
2021/10/11 01:12:31;;;;;;;10.43;3.07;;;7.20;94.50;;;;;;4189275;28;20059;-66
2021/10/11 01:14:32;;;;;;;6.53;3.10;;;7.20;94.40;;;;;;4187206;28;20045;-65
2021/10/11 01:16:34;;;;;;;5.77;3.20;;;7.20;93.90;;;;;;4188831;28;20040;-66
2021/10/11 01:18:35;;;;;;;9.47;3.50;;;7.30;93.70;;;;;;4189779;28;20578;-63
2021/10/11 01:20:37;;;;;;;5.70;2.80;;;7.30;93.70;;;;;;4189148;28;20090;-63
2021/10/11 01:22:41;;;;;;;7.23;3.17;;;7.30;93.60;;;;;;4189296;28;20484;-64
2021/10/11 01:24:43;;;;;;;5.73;3.13;;;7.30;93.50;;;;;;4188436;28;20028;-63
2021/10/11 01:26:45;;;;;;;9.83;3.13;;;7.30;93.40;;;;;;4180194;28;20525;-64
2021/10/11 01:28:46;;;;;;;7.03;2.63;;;7.40;93.10;;;;;;4172264;28;20552;-62
2021/10/11 01:30:47;;;;;;;5.80;2.77;;;7.40;93.00;;;;;;4173606;28;20091;-64
2021/10/11 01:32:48;;;;;;;5.73;3.10;;;7.40;92.80;;;;;;4172234;28;20079;-64
2021/10/11 01:34:50;;;;;;;6.30;3.00;;;7.50;92.80;;;;;;4174264;28;20017;-65
2021/10/11 01:36:52;;;;;;;7.63;3.03;;;7.50;92.80;;;;;;4171515;28;20029;-65
2021/10/11 01:38:54;;;;;;;6.10;3.07;;;7.50;92.60;;;;;;4173293;28;20477;-65
2021/10/11 01:40:56;;;;;;;6.30;2.73;;;7.50;92.60;;;;;;4172629;28;20041;-66
2021/10/11 01:42:57;;;;;;;6.07;2.93;;;7.50;92.20;;;;;;4173069;28;20098;-63
2021/10/11 01:44:58;;;;;;;7.83;3.43;;;7.50;92.10;;;;;;4180738;28;20036;-65
2021/10/11 01:46:59;;;;;;;6.33;2.97;;;7.50;92.10;;;;;;4188666;28;20074;-63
2021/10/11 01:49:01;;;;;;;8.10;2.63;;;7.50;91.90;;;;;;4174835;28;20033;-64
2021/10/11 01:51:02;;;;;;;8.20;3.03;;;7.50;91.80;;;;;;4172235;28;20094;-65
2021/10/11 01:53:03;;;;;;;6.23;2.90;;;7.50;91.50;;;;;;4172995;28;20028;-66
2021/10/11 01:55:06;;;;;;;9.77;3.50;;;7.50;91.60;;;;;;4172037;28;20087;-66
2021/10/11 01:57:07;;;;;;;7.67;3.40;;;7.50;91.50;;;;;;4173349;28;20323;-62
2021/10/11 01:59:08;;;;;;;5.80;2.70;;;7.40;91.60;;;;;;4171901;28;20101;-65
2021/10/11 02:01:09;;;;;;;5.10;2.97;;;7.40;91.60;;;;;;4189219;28;20040;-64
2021/10/11 02:03:10;;;;;;;5.57;3.10;;;7.40;91.50;;;;;;4187972;28;20049;-63
2021/10/11 02:05:12;;;;;;;5.67;2.73;;;7.40;91.60;;;;;;4189499;28;20044;-66
2021/10/11 02:07:13;;;;;;;6.63;3.10;;;7.30;91.70;;;;;;4188692;28;20094;-65
2021/10/11 02:09:14;;;;;;;5.67;2.97;;;7.30;91.80;;;;;;4189368;28;20037;-64
2021/10/11 02:11:15;;;;;;;6.53;2.90;;;7.30;92.00;;;;;;4188563;28;20074;-62
2021/10/11 02:13:16;;;;;;;6.93;3.40;;;7.30;92.00;;;;;;4187225;28;20032;-65
2021/10/11 02:15:17;;;;;;;6.97;3.17;;;7.30;92.00;;;;;;4172907;28;20017;-63
2021/10/11 02:17:19;;;;;;;4.23;2.60;;;7.20;92.00;;;;;;4188566;28;20075;-66
2021/10/11 02:19:20;;;;;;;10.20;3.37;;;7.20;92.20;;;;;;4189067;28;20105;-63
2021/10/11 02:21:22;;;;;;;7.40;4.53;;;7.20;92.40;;;;;;4188392;28;20071;-65
2021/10/11 02:23:23;;;;;;;7.00;3.47;;;7.20;92.50;;;;;;4188904;28;20032;-63
2021/10/11 02:25:24;;;;;;;7.00;3.17;;;7.10;92.60;;;;;;4188124;28;20036;-64
2021/10/11 02:27:25;;;;;;;5.87;2.97;;;7.10;92.60;;;;;;4186712;28;20022;-62
2021/10/11 02:29:31;;;;;;;6.50;2.83;;;7.00;92.80;;;;;;4171280;28;20025;-63
2021/10/11 02:31:32;;;;;;;9.83;3.07;;;7.00;92.80;;;;;;4172975;28;20037;-66
2021/10/11 02:33:33;;;;;;;7.17;3.33;;;7.00;93.00;;;;;;4171502;28;20087;-64
2021/10/11 02:35:34;;;;;;;10.63;3.53;;;7.00;93.10;;;;;;4172850;28;20059;-63
2021/10/11 02:37:36;;;;;;;8.67;3.53;;;7.00;93.10;;;;;;4171270;28;20044;-63
2021/10/11 02:39:37;;;;;;;10.63;3.33;;;7.00;93.00;;;;;;4179057;28;20028;-64
2021/10/11 02:41:38;;;;;;;7.77;3.50;;;7.00;93.10;;;;;;4187796;28;20129;-63
2021/10/11 02:43:39;;;;;;;6.23;3.40;;;6.90;93.10;;;;;;4175321;28;20048;-65
2021/10/11 02:45:41;;;;;;;7.53;3.63;;;7.00;93.40;;;;;;4173533;28;20378;-64
2021/10/11 02:47:42;;;;;;;8.67;3.80;;;6.90;93.30;;;;;;4175221;28;20087;-67
2021/10/11 02:49:43;;;;;;;7.37;3.40;;;6.90;93.30;;;;;;4174455;28;20883;-63
2021/10/11 02:51:44;;;;;;;8.57;3.73;;;7.00;93.20;;;;;;4172758;28;20041;-64
2021/10/11 02:53:49;;;;;;;9.03;3.77;;;6.90;93.00;;;;;;4175847;28;20075;-66
2021/10/11 02:55:50;;;;;;;8.67;3.60;;;7.00;93.10;;;;;;4174552;28;20044;-63
2021/10/11 02:57:51;;;;;;;6.80;3.30;;;6.90;93.10;;;;;;4176065;28;20049;-62
2021/10/11 02:59:52;;;;;;;9.10;3.60;;;7.00;93.20;;;;;;4176315;28;20024;-63
2021/10/11 03:01:53;;;;;;;8.67;3.80;;;7.00;92.90;;;;;;4175437;28;20567;-63
2021/10/11 03:03:54;;;;;;;8.83;3.23;;;7.00;92.80;;;;;;4174107;28;20059;-65
2021/10/11 03:05:55;;;;;;;9.20;3.17;;;7.00;92.60;;;;;;4176427;28;20543;-66
2021/10/11 03:07:56;;;;;;;5.50;3.43;;;7.00;93.10;;;;;;4174055;28;20021;-64
2021/10/11 03:09:58;;;;;;;6.97;3.10;;;7.00;93.20;;;;;;4175579;28;20473;-65
2021/10/11 03:11:59;;;;;;;7.13;3.57;;;7.00;93.20;;;;;;4174048;28;20440;-63
2021/10/11 03:14:00;;;;;;;8.50;3.73;;;7.00;93.20;;;;;;4173721;28;20107;-65
2021/10/11 03:16:01;;;;;;;8.17;3.43;;;7.00;93.30;;;;;;4175247;28;20436;-65
2021/10/11 03:18:02;;;;;;;8.93;3.97;;;6.90;93.30;;;;;;4174437;28;20040;-65
2021/10/11 03:20:04;;;;;;;10.17;3.40;;;7.00;93.10;;;;;;4174773;28;20167;-65
2021/10/11 03:22:06;;;;;;;8.33;3.40;;;7.00;93.00;;;;;;4173746;28;20033;-65
2021/10/11 03:24:07;;;;;;;6.20;3.50;;;7.00;93.10;;;;;;4176025;28;20071;-63
2021/10/11 03:26:08;;;;;;;9.33;4.20;;;7.00;92.90;;;;;;4174373;28;20067;-65
2021/10/11 03:28:09;;;;;;;14.33;3.73;;;7.00;93.00;;;;;;4174989;28;20094;-66
2021/10/11 03:30:10;;;;;;;7.03;3.60;;;7.00;93.00;;;;;;4172578;28;20036;-66
2021/10/11 03:32:11;;;;;;;6.87;3.10;;;7.00;93.00;;;;;;4175363;28;20054;-63
2021/10/11 03:34:14;;;;;;;7.80;3.87;;;7.00;93.00;;;;;;4174901;28;20128;-62
2021/10/11 03:36:16;;;;;;;11.23;3.53;;;7.00;93.00;;;;;;4174517;28;20558;-62
2021/10/11 03:38:17;;;;;;;5.43;3.30;;;7.00;93.10;;;;;;4173784;28;20045;-64
2021/10/11 03:40:18;;;;;;;14.70;4.20;;;7.00;93.10;;;;;;4174326;28;20037;-64
2021/10/11 03:42:19;;;;;;;9.23;3.53;;;7.00;93.10;;;;;;4173436;28;20090;-65
2021/10/11 03:44:21;;;;;;;5.83;3.27;;;7.00;93.10;;;;;;4174243;28;20041;-66
2021/10/11 03:46:23;;;;;;;10.47;3.80;;;7.00;93.10;;;;;;4177766;28;20584;-62
2021/10/11 03:48:24;;;;;;;11.53;3.73;;;7.00;93.20;;;;;;4174387;28;20679;-63
2021/10/11 03:50:25;;;;;;;5.87;3.87;;;7.00;93.20;;;;;;4173576;28;20107;-63
2021/10/11 03:52:26;;;;;;;7.43;3.97;;;7.00;93.30;;;;;;4173599;28;20033;-63
2021/10/11 03:54:27;;;;;;;9.27;3.90;;;6.90;93.40;;;;;;4177317;28;20052;-65
2021/10/11 03:56:29;;;;;;;9.27;3.83;;;6.90;93.40;;;;;;4172258;28;20059;-65
2021/10/11 03:58:30;;;;;;;7.63;3.57;;;6.90;93.30;;;;;;4174703;28;20138;-63
2021/10/11 04:00:32;;;;;;;6.83;3.50;;;6.90;93.10;;;;;;4174337;28;20111;-65
2021/10/11 04:02:33;;;;;;;10.77;4.27;;;6.90;93.20;;;;;;4174595;28;20029;-65
2021/10/11 04:04:36;;;;;;;8.23;4.23;;;6.90;93.20;;;;;;4173110;28;20056;-64
2021/10/11 04:06:37;;;;;;;6.40;3.87;;;7.00;93.40;;;;;;4173229;28;20132;-63
2021/10/11 04:08:40;;;;;;;8.83;4.20;;;6.90;93.20;;;;;;4169936;28;20118;-64
2021/10/11 04:11:27;;;;;;;6.97;3.90;;;6.90;93.20;;;;;;4173125;28;20393;-63
2021/10/11 04:13:05;;;;;;;14.90;3.77;;;6.90;93.20;;;;;;4168529;28;20452;-65
2021/10/11 04:15:07;;;;;;;7.97;3.40;;;6.90;93.20;;;;;;4173642;28;20082;-65
2021/10/11 04:17:08;;;;;;;10.20;3.97;;;6.90;93.20;;;;;;4172937;28;20037;-62
2021/10/11 04:19:09;;;;;;;10.40;3.90;;;6.90;93.20;;;;;;4174265;28;20032;-62
2021/10/11 04:21:11;;;;;;;7.63;3.40;;;6.90;93.20;;;;;;4172114;28;20075;-66
2021/10/11 04:23:12;;;;;;;10.17;4.03;;;6.90;93.10;;;;;;4152118;28;20049;-65
2021/10/11 04:25:14;;;;;;;7.67;3.80;;;6.90;93.20;;;;;;4162344;28;20048;-66
2021/10/11 04:27:15;;;;;;;7.43;3.20;;;6.90;93.10;;;;;;4179766;28;20115;-64
2021/10/11 04:29:17;;;;;;;6.73;3.27;;;7.00;93.10;;;;;;4171397;28;20102;-63
2021/10/11 04:31:18;;;;;;;8.43;3.93;;;7.00;92.70;;;;;;4182490;28;20041;-61
2021/10/11 04:33:21;;;;;;;11.73;4.27;;;7.00;93.00;;;;;;4172758;28;20725;-64
2021/10/11 04:35:24;;;;;;;5.90;3.77;;;7.00;93.00;;;;;;4171576;28;20040;-63
2021/10/11 04:37:25;;;;;;;7.63;3.37;;;7.00;93.20;;;;;;4186494;28;20074;-63
2021/10/11 04:39:26;;;;;;;10.67;3.43;;;7.00;93.10;;;;;;4187753;28;20106;-64
2021/10/11 04:41:27;;;;;;;8.73;3.90;;;7.00;92.90;;;;;;4189331;28;20455;-62
2021/10/11 04:43:28;;;;;;;7.30;3.57;;;7.00;92.90;;;;;;4188562;28;20542;-62
2021/10/11 04:45:30;;;;;;;6.30;3.70;;;7.00;92.90;;;;;;4190047;28;20082;-63
2021/10/11 04:47:32;;;;;;;7.63;3.23;;;7.10;92.60;;;;;;4189048;28;20576;-64
2021/10/11 04:49:33;;;;;;;9.47;3.40;;;7.10;92.40;;;;;;4189970;28;20040;-68
2021/10/11 04:51:35;;;;;;;13.77;3.73;;;7.10;92.70;;;;;;4188229;28;20092;-65
2021/10/11 04:53:36;;;;;;;9.73;3.47;;;7.10;92.90;;;;;;4189057;28;20032;-63
2021/10/11 04:55:37;;;;;;;11.27;3.87;;;7.10;93.00;;;;;;4188654;28;20485;-68
2021/10/11 04:57:38;;;;;;;6.07;3.00;;;7.10;92.50;;;;;;4190164;28;20040;-63
2021/10/11 04:59:39;;;;;;;6.40;3.27;;;7.10;92.80;;;;;;4189306;28;20106;-67
2021/10/11 05:01:40;;;;;;;7.03;3.43;;;7.10;92.50;;;;;;4188479;28;20036;-63
2021/10/11 05:03:41;;;;;;;8.83;3.20;;;7.10;92.60;;;;;;4189307;28;20589;-68
2021/10/11 05:05:42;;;;;;;8.80;3.50;;;7.00;92.70;;;;;;4188749;28;20090;-63
2021/10/11 05:07:43;;;;;;;15.17;3.93;;;7.00;92.70;;;;;;4188996;28;20456;-64
2021/10/11 05:09:44;;;;;;;5.37;3.57;;;6.90;92.60;;;;;;4188460;28;20032;-68
2021/10/11 05:11:45;;;;;;;11.20;4.80;;;6.90;92.30;;;;;;4188447;28;20846;-63
2021/10/11 05:13:47;;;;;;;9.40;5.50;;;6.90;92.10;;;;;;4188039;28;20097;-63
2021/10/11 05:15:48;;;;;;;12.53;7.63;;;7.00;92.10;;;;;;4189672;28;20036;-63
2021/10/11 05:17:49;;;;;;;11.07;4.87;;;7.00;91.90;;;;;;4188408;28;20089;-61
2021/10/11 05:19:50;;;;;;;11.77;3.97;;;7.00;91.80;;;;;;4189434;28;20380;-61
2021/10/11 05:21:53;;;;;;;12.33;4.80;;;7.00;91.60;;;;;;4187995;28;20109;-64
2021/10/11 05:23:54;;;;;;;8.23;3.07;;;7.10;91.40;;;;;;4189118;28;20090;-62
2021/10/11 05:25:55;;;;;;;10.23;3.27;;;7.10;91.40;;;;;;4188348;28;20477;-62
2021/10/11 05:27:56;;;;;;;9.80;3.47;;;7.10;91.30;;;;;;4189372;28;20589;-66
2021/10/11 05:29:58;;;;;;;9.93;3.10;;;7.10;91.30;;;;;;4188525;28;20540;-63
2021/10/11 05:31:59;;;;;;;8.87;3.30;;;7.20;91.20;;;;;;4188930;28;20083;-68
2021/10/11 05:34:01;;;;;;;5.57;3.27;;;7.20;91.20;;;;;;4188848;28;20078;-63
2021/10/11 05:36:02;;;;;;;6.33;3.80;;;7.20;91.20;;;;;;4187568;28;20024;-65
2021/10/11 05:38:04;;;;;;;8.07;3.73;;;7.20;91.30;;;;;;4189051;28;20032;-66
2021/10/11 05:40:07;;;;;;;8.63;4.07;;;7.20;91.00;;;;;;4187956;28;20024;-62
2021/10/11 05:42:09;;;;;;;9.13;3.57;;;7.20;91.10;;;;;;4188726;28;20090;-63
2021/10/11 05:44:10;;;;;;;9.03;2.70;;;7.20;91.40;;;;;;4187730;28;20077;-62
2021/10/11 05:46:11;;;;;;;4.80;2.50;;;7.20;91.10;;;;;;4189014;28;20049;-63
2021/10/11 05:48:13;;;;;;;10.70;4.87;;;7.20;91.20;;;;;;4187807;28;20462;-63
2021/10/11 05:50:14;;;;;;;7.63;3.47;;;7.20;91.30;;;;;;4188243;28;20040;-62
2021/10/11 05:52:15;;;;;;;22.57;6.63;;;7.20;91.30;;;;;;4187214;28;20062;-63
2021/10/11 05:54:16;;;;;;;17.97;5.83;;;7.20;91.40;;;;;;4187100;28;20439;-62
2021/10/11 05:56:18;;;;;;;25.50;6.93;;;7.20;91.30;;;;;;4187666;28;20070;-63
2021/10/11 05:58:19;;;;;;;15.50;6.13;;;7.20;91.40;;;;;;4188851;28;20028;-63
2021/10/11 06:00:20;;;;;;;16.30;5.40;;;7.20;91.60;;;;;;4188458;28;20020;-62
2021/10/11 06:02:21;;;;;;;10.67;4.93;;;7.20;91.60;;;;;;4188202;28;20430;-62
2021/10/11 06:04:22;;;;;;;18.87;5.63;;;7.20;91.70;;;;;;4188523;28;20102;-63
2021/10/11 06:06:23;;;;;;;13.10;5.70;;;7.20;91.80;;;;;;4187987;28;20511;-63
2021/10/11 06:08:26;;;;;;;12.83;4.17;;;7.20;91.70;;;;;;4188277;28;20175;-63
2021/10/11 06:10:27;;;;;;;11.63;4.93;;;7.30;91.80;;;;;;4187752;28;20098;-62
2021/10/11 06:12:28;;;;;;;14.40;5.27;;;7.20;91.70;;;;;;4187693;28;20444;-64
2021/10/11 06:14:29;;;;;;;11.53;6.10;;;7.20;91.70;;;;;;4190223;28;20368;-67
2021/10/11 06:16:30;;;;;;;11.03;4.57;;;7.30;91.70;;;;;;4192447;28;20090;-63
2021/10/11 06:18:31;;;;;;;11.20;5.37;;;7.30;91.70;;;;;;4190777;28;20102;-63
2021/10/11 06:20:32;;;;;;;15.77;6.20;;;7.30;91.80;;;;;;4192674;28;20048;-66
2021/10/11 06:22:33;;;;;;;16.10;5.87;;;7.30;91.60;;;;;;4191232;28;20109;-62
2021/10/11 06:24:35;;;;;;;19.07;8.83;;;7.30;91.60;;;;;;4192222;28;20089;-66
2021/10/11 06:26:36;;;;;;;28.77;13.23;;;7.30;91.70;;;;;;4190836;28;20032;-65
2021/10/11 06:28:37;;;;;;;38.13;13.73;;;7.40;91.80;;;;;;4192368;28;20024;-63
2021/10/11 06:30:38;;;;;;;24.97;10.87;;;7.40;92.00;;;;;;4190876;28;20036;-62
2021/10/11 06:32:39;;;;;;;19.87;9.17;;;7.50;92.10;;;;;;4190486;28;20049;-63
2021/10/11 06:34:41;;;;;;;23.57;8.93;;;7.50;92.20;;;;;;4191569;28;20591;-62
2021/10/11 06:36:42;;;;;;;22.93;9.03;;;7.50;92.10;;;;;;4190648;28;20024;-62
2021/10/11 06:38:43;;;;;;;15.30;7.30;;;7.50;91.70;;;;;;4191452;28;20465;-65
2021/10/11 06:40:47;;;;;;;17.47;6.70;;;7.50;92.00;;;;;;4190842;28;20046;-63
2021/10/11 06:42:49;;;;;;;16.83;5.70;;;7.50;92.10;;;;;;4191495;28;20028;-66
2021/10/11 06:44:50;;;;;;;16.20;8.47;;;7.50;92.20;;;;;;4190899;28;20040;-66
2021/10/11 06:46:51;;;;;;;15.80;7.43;;;7.50;92.10;;;;;;4191685;28;20093;-63
2021/10/11 06:48:52;;;;;;;16.27;6.20;;;7.60;92.30;;;;;;4191020;28;20449;-62
2021/10/11 06:50:53;;;;;;;13.07;5.73;;;7.60;92.20;;;;;;4191864;28;20086;-63
2021/10/11 06:52:54;;;;;;;13.13;5.43;;;7.60;92.20;;;;;;4190403;28;20037;-65
2021/10/11 06:54:55;;;;;;;12.57;4.83;;;7.70;92.00;;;;;;4189651;28;20569;-62
2021/10/11 06:56:57;;;;;;;12.70;4.33;;;7.80;92.20;;;;;;4190730;28;20133;-63
2021/10/11 06:58:58;;;;;;;10.53;3.90;;;7.80;91.90;;;;;;4191634;28;20029;-64
2021/10/11 07:00:59;;;;;;;11.27;3.93;;;7.90;91.50;;;;;;4190981;28;20110;-63
2021/10/11 07:03:00;;;;;;;6.87;3.70;;;7.90;91.40;;;;;;4191327;28;20029;-63
2021/10/11 07:05:09;;;;;;;11.60;3.97;;;8.00;91.30;;;;;;4190817;28;20067;-63
2021/10/11 07:07:10;;;;;;;8.20;3.90;;;8.00;91.10;;;;;;4190494;28;20040;-62
2021/10/11 07:09:11;;;;;;;13.17;4.93;;;8.10;90.90;;;;;;4190800;28;20566;-61
2021/10/11 07:11:13;;;;;;;9.47;4.23;;;8.20;90.70;;;;;;4190729;28;20373;-62
2021/10/11 07:13:14;;;;;;;14.30;4.63;;;8.20;90.60;;;;;;4191097;28;20082;-61
2021/10/11 07:15:15;;;;;;;9.93;4.50;;;8.20;90.60;;;;;;4190311;28;20133;-65
2021/10/11 07:17:17;;;;;;;10.77;4.63;;;8.30;90.70;;;;;;4191036;28;20028;-62
2021/10/11 07:19:18;;;;;;;12.53;5.43;;;8.30;90.50;;;;;;4189983;28;20114;-62
2021/10/11 07:21:19;;;;;;;11.20;4.60;;;8.40;90.60;;;;;;4190996;28;20033;-64
2021/10/11 07:23:20;;;;;;;17.03;5.10;;;8.40;90.40;;;;;;4190340;28;20024;-65
2021/10/11 07:25:21;;;;;;;15.77;5.57;;;8.50;90.30;;;;;;4188980;28;20098;-62
2021/10/11 07:27:22;;;;;;;16.03;5.60;;;8.60;90.50;;;;;;4189903;28;20028;-63
2021/10/11 07:29:23;;;;;;;13.27;5.73;;;8.60;90.30;;;;;;4191379;28;20036;-63
2021/10/11 07:31:25;;;;;;;9.80;5.23;;;8.70;90.20;;;;;;4190191;28;20925;-63
2021/10/11 07:33:26;;;;;;;16.60;5.83;;;8.80;90.10;;;;;;4190685;28;20024;-63
2021/10/11 07:35:27;;;;;;;10.37;5.37;;;8.80;90.10;;;;;;4190280;28;20078;-62
2021/10/11 07:37:28;;;;;;;12.07;4.97;;;8.90;90.00;;;;;;4190421;28;20090;-63
2021/10/11 07:39:30;;;;;;;13.13;4.97;;;8.90;89.70;;;;;;4188861;28;20145;-62
2021/10/11 07:41:31;;;;;;;9.70;5.23;;;9.00;89.40;;;;;;4190367;28;20024;-61
2021/10/11 07:43:32;;;;;;;10.10;4.90;;;9.00;89.40;;;;;;4190557;28;20098;-62
2021/10/11 07:45:33;;;;;;;12.97;4.57;;;9.00;89.30;;;;;;4189963;28;20089;-62
2021/10/11 07:47:34;;;;;;;7.57;4.13;;;9.10;89.30;;;;;;4189974;28;20029;-62
2021/10/11 07:49:36;;;;;;;9.63;5.30;;;9.20;88.10;;;;;;4189605;28;20040;-62
2021/10/11 07:51:37;;;;;;;9.20;3.57;;;9.40;87.40;;;;;;4190024;28;20040;-62
2021/10/11 07:53:38;;;;;;;12.60;5.03;;;9.40;87.50;;;;;;4188968;28;20036;-62
2021/10/11 07:55:39;;;;;;;10.43;4.93;;;9.50;86.80;;;;;;4190820;28;20044;-62
2021/10/11 07:57:41;;;;;;;12.67;5.77;;;9.70;86.80;;;;;;4189849;28;20098;-62
2021/10/11 07:59:42;;;;;;;9.53;5.37;;;9.80;86.70;;;;;;4190243;28;20431;-64
2021/10/11 08:01:43;;;;;;;11.77;4.83;;;9.90;86.30;;;;;;4189370;28;20036;-62
2021/10/11 08:03:44;;;;;;;9.07;4.77;;;10.10;86.10;;;;;;4190612;28;20041;-63
2021/10/11 08:05:45;;;;;;;12.10;4.83;;;10.20;85.60;;;;;;4188789;28;20036;-63
2021/10/11 08:07:46;;;;;;;11.53;4.80;;;10.40;85.40;;;;;;4189467;28;20477;-66
2021/10/11 08:09:47;;;;;;;10.60;4.40;;;10.50;85.20;;;;;;4190384;28;20032;-62
2021/10/11 08:11:50;;;;;;;10.93;4.43;;;10.70;85.30;;;;;;4189499;28;20028;-62
2021/10/11 08:13:51;;;;;;;9.83;4.70;;;10.80;84.80;;;;;;4189936;28;20036;-64
2021/10/11 08:15:52;;;;;;;9.70;4.07;;;10.90;84.60;;;;;;4189316;28;20074;-62
2021/10/11 08:17:54;;;;;;;10.67;4.80;;;11.00;84.70;;;;;;4188898;28;20562;-61
2021/10/11 08:19:55;;;;;;;16.03;5.27;;;11.10;84.50;;;;;;4188436;28;20082;-63
2021/10/11 08:21:56;;;;;;;11.20;5.40;;;11.30;84.40;;;;;;4190308;28;20078;-63
2021/10/11 08:23:59;;;;;;;10.53;4.60;;;11.40;84.10;;;;;;4189238;28;20067;-62
2021/10/11 08:26:01;;;;;;;14.57;5.23;;;11.50;84.10;;;;;;4189776;28;20037;-63
2021/10/11 08:28:03;;;;;;;15.43;5.73;;;11.80;83.60;;;;;;4189820;28;20033;-63
2021/10/11 08:30:05;;;;;;;13.17;4.83;;;11.80;83.50;;;;;;4189745;28;20028;-63
2021/10/11 08:32:06;;;;;;;12.33;5.10;;;11.90;83.30;;;;;;4189273;28;20048;-62
2021/10/11 08:34:08;;;;;;;14.00;5.60;;;11.90;83.10;;;;;;4189680;28;20029;-62
2021/10/11 08:36:13;;;;;;;10.97;5.07;;;12.00;83.40;;;;;;4188767;28;20437;-62
2021/10/11 08:38:15;;;;;;;11.40;4.97;;;12.20;83.30;;;;;;4188956;28;20126;-62
2021/10/11 08:40:16;;;;;;;8.43;4.77;;;12.20;82.40;;;;;;4189249;28;20487;-62
2021/10/11 08:42:20;;;;;;;9.87;4.10;;;12.30;81.90;;;;;;4189266;28;20036;-65
2021/10/11 08:44:22;;;;;;;8.43;3.90;;;12.30;80.80;;;;;;4188629;28;20105;-63
2021/10/11 08:46:24;;;;;;;21.13;4.70;;;12.30;79.90;;;;;;4189115;28;20032;-63
2021/10/11 08:48:25;;;;;;;8.03;3.87;;;12.40;79.90;;;;;;4189481;28;20090;-61
2021/10/11 08:50:26;;;;;;;7.93;3.67;;;12.50;80.10;;;;;;4188439;28;20052;-64
2021/10/11 08:52:29;;;;;;;8.53;3.53;;;12.50;79.50;;;;;;4189298;28;20113;-65
2021/10/11 08:54:30;;;;;;;8.80;3.00;;;12.60;78.80;;;;;;4188134;28;20040;-61
2021/10/11 08:56:33;;;;;;;8.17;3.47;;;12.60;78.20;;;;;;4189561;28;20028;-64
2021/10/11 08:58:46;;;;;;;7.60;3.20;;;12.60;77.90;;;;;;4188822;28;20457;-61
2021/10/11 09:01:28;;;;;;;7.37;3.60;;;12.70;78.10;;;;;;4189498;28;20078;-61
2021/10/11 09:03:31;;;;;;;9.43;3.30;;;12.80;77.50;;;;;;4188109;28;20122;-62
2021/10/11 09:05:36;;;;;;;8.17;3.27;;;12.90;78.10;;;;;;4189445;28;20699;-62
2021/10/11 09:07:37;;;;;;;10.77;3.27;;;13.10;77.70;;;;;;4187976;28;20059;-63
2021/10/11 09:09:49;;;;;;;7.67;2.50;;;13.20;77.60;;;;;;4187791;28;20032;-62
2021/10/11 09:11:50;;;;;;;9.07;2.80;;;13.40;76.40;;;;;;4188075;28;20024;-67
2021/10/11 09:13:51;;;;;;;10.47;2.97;;;13.50;76.50;;;;;;4188292;28;20048;-63
2021/10/11 09:16:08;;;;;;;8.80;3.40;;;13.60;76.10;;;;;;4188184;28;20136;-62
2021/10/11 09:18:09;;;;;;;10.07;2.73;;;13.60;74.70;;;;;;4189535;28;20503;-62
2021/10/11 09:20:18;;;;;;;6.00;2.83;;;13.50;75.20;;;;;;4187955;28;20481;-61
2021/10/11 09:22:31;;;;;;;7.03;2.63;;;13.40;74.50;;;;;;4189101;28;20106;-62
2021/10/11 09:24:32;;;;;;;4.50;2.60;;;13.40;74.90;;;;;;4187915;28;20094;-62
2021/10/11 09:26:46;;;;;;;8.90;3.77;;;13.40;74.90;;;;;;4188989;28;20103;-63
2021/10/11 09:28:55;;;;;;;7.70;3.63;;;13.40;75.30;;;;;;4187944;28;20040;-64
2021/10/11 09:30:58;;;;;;;7.07;3.20;;;13.50;76.00;;;;;;4188932;28;20036;-62
2021/10/11 09:33:11;;;;;;;8.33;3.17;;;13.60;75.50;;;;;;4187791;28;20499;-62
2021/10/11 09:35:20;;;;;;;7.10;2.90;;;13.60;75.10;;;;;;4188617;28;20046;-66
2021/10/11 09:37:21;;;;;;;7.80;3.20;;;13.70;75.30;;;;;;4188178;28;20458;-62
2021/10/11 09:39:23;;;;;;;9.73;3.27;;;13.60;75.10;;;;;;4189020;28;20032;-63
2021/10/11 09:41:25;;;;;;;6.20;3.17;;;13.60;75.20;;;;;;4188449;28;20041;-64
2021/10/11 09:43:28;;;;;;;9.33;3.77;;;13.60;74.70;;;;;;4188606;28;20036;-65
2021/10/11 09:45:29;;;;;;;8.33;3.50;;;13.60;74.50;;;;;;4187631;28;20040;-67
2021/10/11 09:47:35;;;;;;;10.23;4.83;;;13.50;74.30;;;;;;4188772;28;20496;-61
2021/10/11 09:49:38;;;;;;;9.70;3.50;;;13.60;74.60;;;;;;4187812;28;20366;-62
2021/10/11 09:51:41;;;;;;;5.27;2.83;;;13.70;74.30;;;;;;4187307;28;20032;-62
2021/10/11 09:53:45;;;;;;;9.53;2.87;;;13.60;73.80;;;;;;4187960;28;20530;-62
2021/10/11 09:55:47;;;;;;;8.63;3.30;;;13.60;74.00;;;;;;4187735;28;20086;-65
2021/10/11 09:57:49;;;;;;;5.30;3.10;;;13.60;74.00;;;;;;4188486;28;20044;-64
2021/10/11 09:59:51;;;;;;;4.07;2.70;;;13.60;73.90;;;;;;4188593;28;20454;-62
2021/10/11 10:01:52;;;;;;;8.77;3.10;;;13.50;73.90;;;;;;4188567;28;20444;-63
2021/10/11 10:03:55;;;;;;;5.17;3.20;;;13.50;74.40;;;;;;4187569;28;20082;-62
2021/10/11 10:05:57;;;;;;;4.97;3.27;;;13.50;73.90;;;;;;4188374;28;20086;-63
2021/10/11 10:08:01;;;;;;;10.63;3.00;;;13.60;74.20;;;;;;4187136;28;20090;-62
2021/10/11 10:10:05;;;;;;;7.93;2.70;;;13.50;74.20;;;;;;4188272;28;20069;-64
2021/10/11 10:12:07;;;;;;;5.40;3.20;;;13.50;74.20;;;;;;4187656;28;20086;-62
2021/10/11 10:14:25;;;;;;;7.87;3.40;;;13.60;74.40;;;;;;4188544;28;20646;-62
2021/10/11 10:16:26;;;;;;;5.70;2.80;;;13.50;74.10;;;;;;4187152;28;20082;-62
2021/10/11 10:18:37;;;;;;;6.97;2.93;;;13.50;73.90;;;;;;4188453;28;20082;-62
2021/10/11 10:20:58;;;;;;;12.40;4.00;;;13.40;73.60;;;;;;4186942;28;20040;-65
2021/10/11 10:23:00;;;;;;;7.03;3.33;;;13.40;73.60;;;;;;4188483;28;20074;-64
2021/10/11 10:25:10;;;;;;;6.67;3.27;;;13.40;74.30;;;;;;4187236;28;20044;-62
2021/10/11 10:27:14;;;;;;;9.03;3.33;;;13.40;74.10;;;;;;4188569;28;20051;-65
2021/10/11 10:29:18;;;;;;;12.33;4.67;;;13.40;74.40;;;;;;4187678;28;20281;-64
2021/10/11 10:31:34;;;;;;;12.17;3.47;;;13.40;74.40;;;;;;4188259;28;20783;-63
2021/10/11 10:33:40;;;;;;;7.50;3.33;;;13.50;74.10;;;;;;4187108;28;20078;-63
2021/10/11 10:35:46;;;;;;;5.90;3.30;;;13.50;74.40;;;;;;4188346;28;20029;-63
2021/10/11 10:37:48;;;;;;;9.53;2.87;;;13.50;74.30;;;;;;4187985;28;20049;-63
2021/10/11 10:39:50;;;;;;;9.33;3.50;;;13.50;74.50;;;;;;4187928;28;20046;-62